Blue Springs, Nebraska
Current Conditions -  °F | °C
As of 10:35 AM on Wednesday 22 Oct 2014 (Local Time) from KBIE Reporting Station
Clear Clear  
Wind Chill: 64°   Ceiling: Unl
Heat Index: 64°   Visibility: 10mi
Dew Point: 52°   Wind: 12mph
Humidity: 64%   Direction: 170°S
Pressure: 30.1"   Gusts: NA
Location:  40.14°N, 96.66°W
Report Text: KBIE 221535Z AUTO 17010KT 10SM CLR 18/11 A3010 RMK AO2 T01800110
Loading
Personal Weather Stations






























Interactive Weather Map
Tropical Storm Tracking
New forecast layout! Learn more

10-Day Weather Forecast

Advertisements
Track Severe Weather on mobile